Terminal Aerodrome Forecast
Issued by NWS

Home | Current Version | Previous Version | Text Only | Print | Product List | Glossary Off
Versions: 1 2 3 4 5 6 7 8 9 10 11 12 13 14 15 16 17 18

000
FTUS43 KMPX 221738
TAFRNH
TAF
KRNH 221738Z 2218/2318 22010KT P6SM BKN010
      TEMPO 2218/2219 SCT010
     FM221900 22010KT P6SM SCT012
      TEMPO 2221/2224 BKN012
     FM230600 21011KT P6SM OVC070
     FM231200 21013KT 6SM BR VCSH SCT020 OVC040 PROB30 2312/2317
      -FZRA OVC020=

USA.gov is the U.S. government's official web portal to all federal, state and local government web resources and services.